createdAt,value
2023-04-24T00:01:40.504Z,7.60
2023-04-24T00:04:12.041Z,4.70
2023-04-24T00:06:39.789Z,7.83
2023-04-24T00:09:07.233Z,61.67
2023-04-24T00:11:34.785Z,78.83
2023-04-24T00:14:02.394Z,66.87
2023-04-24T00:16:30.118Z,41.77
2023-04-24T00:18:57.615Z,33.87
2023-04-24T00:21:26.766Z,50.97
2023-04-24T00:23:54.896Z,51.63
2023-04-24T00:26:22.336Z,221.40
2023-04-24T00:28:49.864Z,147.40
2023-04-24T00:31:17.389Z,240.00
2023-04-24T00:33:44.820Z,208.03
2023-04-24T00:36:12.280Z,231.97
2023-04-24T00:38:39.715Z,410.97
2023-04-24T00:41:07.705Z,315.20
2023-04-24T00:43:35.437Z,226.40
2023-04-24T00:46:03.048Z,98.43
2023-04-24T00:48:31.438Z,64.67
2023-04-24T00:50:59.804Z,91.03
2023-04-24T00:53:27.471Z,125.93
2023-04-24T00:55:55.376Z,50.90
2023-04-24T00:58:22.951Z,46.73
2023-04-24T01:00:54.163Z,47.77
2023-04-24T01:03:30.086Z,45.17
2023-04-24T01:05:59.486Z,34.87
2023-04-24T01:08:29.984Z,33.93
2023-04-24T01:10:59.008Z,41.77
2023-04-24T01:13:26.612Z,39.97
2023-04-24T01:15:54.083Z,44.77
2023-04-24T01:18:22.942Z,42.27
2023-04-24T01:20:55.364Z,33.57
2023-04-24T01:23:22.852Z,22.47
2023-04-24T01:25:53.380Z,13.67
2023-04-24T01:28:21.588Z,9.60
2023-04-24T01:30:49.451Z,7.67
2023-04-24T01:33:18.066Z,10.40
2023-04-24T01:35:46.679Z,15.63
2023-04-24T01:38:14.190Z,9.53
2023-04-24T01:40:41.939Z,7.43
2023-04-24T01:43:09.421Z,8.13
2023-04-24T01:45:36.874Z,17.50
2023-04-24T01:48:06.182Z,15.87
2023-04-24T01:50:33.898Z,12.97
2023-04-24T01:53:01.610Z,13.80
2023-04-24T01:55:30.389Z,13.97
2023-04-24T01:57:58.597Z,8.90
2023-04-24T02:00:26.339Z,13.50
2023-04-24T02:02:54.636Z,9.67
2023-04-24T02:05:25.392Z,9.57
2023-04-24T02:07:52.873Z,11.33
2023-04-24T02:10:20.408Z,11.60
2023-04-24T02:12:47.841Z,13.27
2023-04-24T02:15:16.443Z,14.40
2023-04-24T02:17:44.040Z,10.60
2023-04-24T02:20:11.925Z,12.30
2023-04-24T02:22:39.685Z,11.40
2023-04-24T02:25:07.739Z,11.63
2023-04-24T02:27:35.278Z,12.20
2023-04-24T02:30:07.349Z,11.73
2023-04-24T02:32:35.045Z,12.67
2023-04-24T02:35:03.101Z,13.87
2023-04-24T02:37:31.149Z,12.70
2023-04-24T02:39:58.607Z,15.90
2023-04-24T02:42:26.184Z,14.53
2023-04-24T02:44:53.632Z,14.07
2023-04-24T02:47:21.266Z,13.90
2023-04-24T02:49:50.302Z,12.30
2023-04-24T02:52:17.934Z,13.27
2023-04-24T02:54:45.611Z,32.37
2023-04-24T02:57:13.100Z,25.30
2023-04-24T02:59:43.187Z,9.40
2023-04-24T03:02:10.930Z,15.13
2023-04-24T03:04:38.669Z,14.17
2023-04-24T03:07:06.717Z,16.97
2023-04-24T03:09:34.208Z,8.73
2023-04-24T03:12:01.692Z,11.67
2023-04-24T03:14:32.229Z,10.40
2023-04-24T03:16:59.756Z,14.53
2023-04-24T03:19:28.018Z,14.03
2023-04-24T03:22:04.375Z,9.67
2023-04-24T03:24:35.415Z,10.53
2023-04-24T03:27:02.948Z,14.23
2023-04-24T03:29:57.057Z,10.30
2023-04-24T03:32:47.349Z,7.30
2023-04-24T03:35:19.884Z,11.57
2023-04-24T03:37:47.336Z,12.97
2023-04-24T03:40:34.641Z,14.27
2023-04-24T03:43:05.914Z,15.70
2023-04-24T03:45:36.903Z,16.17
2023-04-24T03:48:05.724Z,30.53
2023-04-24T03:50:33.679Z,49.53
2023-04-24T03:53:02.072Z,51.37
2023-04-24T03:55:42.888Z,45.63
2023-04-24T03:58:12.689Z,35.60
2023-04-24T04:00:41.364Z,41.10
2023-04-24T04:03:34.917Z,50.73
2023-04-24T04:06:03.163Z,65.63
2023-04-24T04:08:31.411Z,50.27
2023-04-24T04:10:59.897Z,42.07
2023-04-24T04:13:30.512Z,37.80
2023-04-24T04:15:58.176Z,51.87
2023-04-24T04:18:26.108Z,34.43
2023-04-24T04:20:53.601Z,27.27
2023-04-24T04:23:21.168Z,28.27
2023-04-24T04:26:09.133Z,13.13
2023-04-24T04:29:03.077Z,12.43
2023-04-24T04:31:31.795Z,13.03
2023-04-24T04:34:03.475Z,15.07
2023-04-24T04:36:33.759Z,12.20
2023-04-24T04:39:09.354Z,14.53
2023-04-24T04:41:53.945Z,17.00
2023-04-24T04:44:24.471Z,15.00
2023-04-24T04:46:54.256Z,20.70
2023-04-24T04:49:31.818Z,20.57
2023-04-24T04:51:59.435Z,13.83
2023-04-24T04:54:28.248Z,9.57
2023-04-24T04:56:58.366Z,10.43
2023-04-24T04:59:26.350Z,18.43
2023-04-24T05:01:59.708Z,7.53
2023-04-24T05:04:27.706Z,16.80
2023-04-24T05:06:55.312Z,20.03
2023-04-24T05:09:24.333Z,18.10
2023-04-24T05:11:56.300Z,27.60
2023-04-24T05:14:25.201Z,32.20
2023-04-24T05:16:53.144Z,41.37
2023-04-24T05:19:22.623Z,21.03
2023-04-24T05:21:50.084Z,10.17
2023-04-24T05:24:18.059Z,17.40
2023-04-24T05:27:06.772Z,11.47
2023-04-24T05:29:39.154Z,7.50
2023-04-24T05:32:07.738Z,9.13
2023-04-24T05:34:35.990Z,9.07
2023-04-24T05:37:04.743Z,5.37
2023-04-24T05:39:32.190Z,7.73
2023-04-24T05:42:02.422Z,9.80
2023-04-24T05:44:29.878Z,7.73
2023-04-24T05:46:57.870Z,5.77
2023-04-24T05:49:25.781Z,9.63
2023-04-24T05:51:53.542Z,9.43
2023-04-24T05:54:21.123Z,10.33
2023-04-24T05:56:48.643Z,11.50
2023-04-24T05:59:23.083Z,10.87
2023-04-24T06:01:52.309Z,8.77
2023-04-24T06:04:22.688Z,11.83
2023-04-24T06:06:51.971Z,7.70
2023-04-24T06:09:19.704Z,8.73
2023-04-24T06:11:47.185Z,8.40
2023-04-24T06:14:15.677Z,7.10
2023-04-24T06:17:01.912Z,6.30
2023-04-24T06:19:35.990Z,7.73
2023-04-24T06:22:03.921Z,15.60
2023-04-24T06:24:31.890Z,8.00
2023-04-24T06:27:01.492Z,7.30
2023-04-24T06:29:29.577Z,10.40
2023-04-24T06:31:57.248Z,8.63
2023-04-24T06:34:24.724Z,5.40
2023-04-24T06:36:52.624Z,8.57
2023-04-24T06:39:20.224Z,5.00
2023-04-24T06:41:47.669Z,8.50
2023-04-24T06:44:20.785Z,7.33
2023-04-24T06:46:48.545Z,11.93
2023-04-24T06:49:17.091Z,7.57
2023-04-24T06:51:44.666Z,9.37
2023-04-24T06:54:12.159Z,8.53
2023-04-24T06:56:39.614Z,8.50
2023-04-24T06:59:07.180Z,7.37
2023-04-24T07:01:34.618Z,6.57
2023-04-24T07:04:02.752Z,6.80
2023-04-24T07:06:32.798Z,10.33
2023-04-24T07:09:02.482Z,5.53
2023-04-24T07:11:30.309Z,6.73
2023-04-24T07:13:57.894Z,6.63
2023-04-24T07:16:25.496Z,11.77
2023-04-24T07:18:53.205Z,8.17
2023-04-24T07:21:20.760Z,4.80
2023-04-24T07:23:48.262Z,6.67
2023-04-24T07:26:16.058Z,5.53
2023-04-24T07:28:43.646Z,7.47
2023-04-24T07:31:13.136Z,6.53
2023-04-24T07:33:40.818Z,8.63
2023-04-24T07:36:08.447Z,5.53
2023-04-24T07:38:35.901Z,5.77
2023-04-24T07:41:03.390Z,10.37
2023-04-24T07:43:30.979Z,10.13
2023-04-24T07:45:58.491Z,8.30
2023-04-24T07:48:27.468Z,8.87
2023-04-24T07:50:55.707Z,7.03
2023-04-24T07:53:23.376Z,8.70
2023-04-24T07:55:50.970Z,5.33
2023-04-24T07:58:18.581Z,7.57
2023-04-24T08:00:46.131Z,7.37
2023-04-24T08:03:13.813Z,6.63
2023-04-24T08:05:44.073Z,11.43
2023-04-24T08:08:11.713Z,8.33
2023-04-24T08:10:39.314Z,6.70
2023-04-24T08:13:06.959Z,9.00
2023-04-24T08:15:34.432Z,9.33
2023-04-24T08:18:02.000Z,8.23
2023-04-24T08:20:29.667Z,6.07
2023-04-24T08:22:57.589Z,7.20
2023-04-24T08:25:25.782Z,8.57
2023-04-24T08:27:53.452Z,6.43
2023-04-24T08:30:23.649Z,10.93
2023-04-24T08:32:51.168Z,9.23
2023-04-24T08:35:18.827Z,6.97
2023-04-24T08:37:46.252Z,10.43
2023-04-24T08:40:18.127Z,8.07
2023-04-24T08:42:46.613Z,10.40
2023-04-24T08:45:15.053Z,8.93
2023-04-24T08:47:45.168Z,7.60
2023-04-24T08:50:13.821Z,12.87
2023-04-24T08:52:42.227Z,9.07
2023-04-24T08:55:10.254Z,7.60
2023-04-24T08:57:41.093Z,6.37
2023-04-24T09:00:11.704Z,11.00
2023-04-24T09:02:44.973Z,7.30
2023-04-24T09:05:18.821Z,6.57
2023-04-24T09:07:57.417Z,6.30
2023-04-24T09:10:29.134Z,4.90
2023-04-24T09:12:59.231Z,6.23
2023-04-24T09:15:29.731Z,6.10
2023-04-24T09:17:57.562Z,5.77
2023-04-24T09:20:25.255Z,5.13
2023-04-24T09:22:56.716Z,7.77
2023-04-24T09:25:26.272Z,10.03
2023-04-24T09:27:56.128Z,5.60
2023-04-24T09:30:24.243Z,5.97
2023-04-24T09:33:00.259Z,11.53
2023-04-24T09:35:30.513Z,10.70
2023-04-24T09:37:59.536Z,6.57
2023-04-24T09:40:27.307Z,4.57
2023-04-24T09:42:57.865Z,8.27
2023-04-24T09:45:39.532Z,5.00
2023-04-24T09:48:11.351Z,7.57
2023-04-24T09:50:39.226Z,6.47
2023-04-24T09:53:11.869Z,4.23
2023-04-24T09:55:49.509Z,5.20
2023-04-24T09:58:17.068Z,5.93
2023-04-24T10:00:44.462Z,6.60
2023-04-24T10:03:12.777Z,5.47
2023-04-24T10:05:44.768Z,6.13
2023-04-24T10:08:14.400Z,7.77
2023-04-24T10:10:46.876Z,3.70
2023-04-24T10:13:16.777Z,5.77
2023-04-24T10:15:51.006Z,5.33
2023-04-24T10:18:19.933Z,5.65
2023-04-24T10:20:47.660Z,4.75
2023-04-24T10:23:15.420Z,3.45
2023-04-24T10:25:43.263Z,5.45
2023-04-24T10:28:12.192Z,4.97
2023-04-24T10:30:44.531Z,4.93
2023-04-24T10:33:13.356Z,5.90
2023-04-24T10:35:48.812Z,3.58
2023-04-24T10:38:27.997Z,3.75
2023-04-24T10:41:20.443Z,5.45
2023-04-24T10:43:49.720Z,4.45
2023-04-24T10:46:22.677Z,3.28
2023-04-24T10:48:57.947Z,3.45
2023-04-24T10:51:44.076Z,3.20
2023-04-24T10:54:44.332Z,4.13
2023-04-24T10:57:40.906Z,3.05
2023-04-24T11:00:21.256Z,4.57
2023-04-24T11:02:51.763Z,3.13
2023-04-24T11:05:21.483Z,4.57
2023-04-24T11:08:23.392Z,4.15
2023-04-24T11:11:05.310Z,6.03
2023-04-24T11:14:01.888Z,3.85
2023-04-24T11:16:39.313Z,6.13
2023-04-24T11:19:17.791Z,3.78
2023-04-24T11:22:02.843Z,5.20
2023-04-24T11:24:48.042Z,3.75
2023-04-24T11:27:23.497Z,4.55
2023-04-24T11:29:57.328Z,3.53
2023-04-24T11:32:26.216Z,5.00
2023-04-24T11:35:08.094Z,6.60
2023-04-24T11:37:44.655Z,5.85
2023-04-24T11:40:16.546Z,5.53
2023-04-24T11:42:51.554Z,4.60
2023-04-24T11:45:29.087Z,4.40
2023-04-24T11:47:56.958Z,4.07
2023-04-24T11:50:28.802Z,3.08
2023-04-24T11:52:56.935Z,4.60
2023-04-24T11:55:29.521Z,7.57
2023-04-24T11:58:00.278Z,3.08
2023-04-24T12:00:30.425Z,6.55
2023-04-24T12:03:12.609Z,4.47
2023-04-24T12:05:42.092Z,3.20
2023-04-24T12:08:09.825Z,3.70
2023-04-24T12:10:37.837Z,3.25
2023-04-24T12:13:06.506Z,3.85
2023-04-24T12:15:34.125Z,2.75
2023-04-24T12:18:01.708Z,2.90
2023-04-24T12:20:32.332Z,4.18
2023-04-24T12:23:02.078Z,4.43
2023-04-24T12:25:32.168Z,6.18
2023-04-24T12:28:18.712Z,3.45
2023-04-24T12:30:50.287Z,3.35
2023-04-24T12:33:22.449Z,2.83
2023-04-24T12:35:56.595Z,4.82
2023-04-24T12:38:27.750Z,4.90
2023-04-24T12:41:14.499Z,5.32
2023-04-24T12:43:54.113Z,3.25
2023-04-24T12:46:22.730Z,4.05
2023-04-24T12:48:50.779Z,4.28
2023-04-24T12:51:18.403Z,5.18
2023-04-24T12:53:45.944Z,3.15
2023-04-24T12:56:13.425Z,3.85
2023-04-24T12:58:40.906Z,5.75
2023-04-24T13:01:08.544Z,5.47
2023-04-24T13:03:36.596Z,4.22
2023-04-24T13:06:04.410Z,6.68
2023-04-24T13:08:31.829Z,4.68
2023-04-24T13:10:59.338Z,4.75
2023-04-24T13:13:26.928Z,4.60
2023-04-24T13:15:54.361Z,6.47
2023-04-24T13:18:22.337Z,4.00
2023-04-24T13:20:50.064Z,2.78
2023-04-24T13:23:18.235Z,7.03
2023-04-24T13:25:45.749Z,3.70
2023-04-24T13:28:13.295Z,7.20
2023-04-24T13:30:40.929Z,3.65
2023-04-24T13:33:08.571Z,4.55
2023-04-24T13:35:36.198Z,4.13
2023-04-24T13:38:07.034Z,7.25
2023-04-24T13:40:34.964Z,2.58
2023-04-24T13:43:03.052Z,3.55
2023-04-24T13:45:30.672Z,5.38
2023-04-24T13:47:58.481Z,3.53
2023-04-24T13:50:26.569Z,6.00
2023-04-24T13:52:54.399Z,3.78
2023-04-24T13:55:21.970Z,4.53
2023-04-24T13:57:49.988Z,6.85
2023-04-24T14:00:18.907Z,3.10
2023-04-24T14:02:46.585Z,3.33
2023-04-24T14:05:16.310Z,3.22
2023-04-24T14:07:43.767Z,6.70
2023-04-24T14:10:11.682Z,4.75
2023-04-24T14:12:41.748Z,3.55
2023-04-24T14:15:10.392Z,3.55
2023-04-24T14:17:37.975Z,3.13
2023-04-24T14:20:07.967Z,6.13
2023-04-24T14:22:35.718Z,3.25
2023-04-24T14:25:03.284Z,6.28
2023-04-24T14:27:31.518Z,2.67
2023-04-24T14:29:59.172Z,3.30
2023-04-24T14:32:27.144Z,4.90
2023-04-24T14:34:54.669Z,3.40
2023-04-24T14:37:22.415Z,5.18
2023-04-24T14:40:00.625Z,2.60
2023-04-24T14:42:37.481Z,3.00
2023-04-24T14:45:05.650Z,5.20
2023-04-24T14:47:33.252Z,4.22
2023-04-24T14:50:00.959Z,2.35
2023-04-24T14:52:28.564Z,7.65
2023-04-24T14:54:57.158Z,4.53
2023-04-24T14:57:24.975Z,6.68
2023-04-24T14:59:52.571Z,2.65
2023-04-24T15:02:22.264Z,5.30
2023-04-24T15:04:50.641Z,4.25
2023-04-24T15:07:18.436Z,2.80
2023-04-24T15:09:48.138Z,6.25
2023-04-24T15:12:15.870Z,2.60
2023-04-24T15:14:43.443Z,2.28
2023-04-24T15:17:13.816Z,3.85
2023-04-24T15:19:41.383Z,4.47
2023-04-24T15:22:09.755Z,2.40
2023-04-24T15:24:37.299Z,4.30
2023-04-24T15:27:06.780Z,6.50
2023-04-24T15:29:35.867Z,3.30
2023-04-24T15:32:03.435Z,3.33
2023-04-24T15:34:33.218Z,4.18
2023-04-24T15:37:01.603Z,2.47
2023-04-24T15:39:29.145Z,3.47
2023-04-24T15:41:56.746Z,3.13
2023-04-24T15:44:24.667Z,3.50
2023-04-24T15:46:52.730Z,2.80
2023-04-24T15:49:20.512Z,3.60
2023-04-24T15:51:48.103Z,2.75
2023-04-24T15:54:15.718Z,5.72
2023-04-24T15:56:44.730Z,4.45
2023-04-24T15:59:13.527Z,4.20
2023-04-24T16:01:41.576Z,4.90
2023-04-24T16:04:09.728Z,8.63
2023-04-24T16:06:37.518Z,3.47
2023-04-24T16:09:06.420Z,5.55
2023-04-24T16:11:36.771Z,6.95
2023-04-24T16:14:05.413Z,4.35
2023-04-24T16:16:33.311Z,5.82
2023-04-24T16:19:02.160Z,5.78
2023-04-24T16:21:29.896Z,6.78
2023-04-24T16:23:59.501Z,7.85
2023-04-24T16:26:28.044Z,4.13
2023-04-24T16:28:55.946Z,27.38
2023-04-24T16:31:23.561Z,5.30
2023-04-24T16:33:52.226Z,4.68
2023-04-24T16:36:22.374Z,2.33
2023-04-24T16:38:51.193Z,5.28
2023-04-24T16:41:18.731Z,2.20
2023-04-24T16:43:47.612Z,2.38
2023-04-24T16:46:18.167Z,3.95
2023-04-24T16:48:47.626Z,3.53
2023-04-24T16:51:15.904Z,4.53
2023-04-24T16:53:48.993Z,2.38
2023-04-24T16:56:19.122Z,2.58
2023-04-24T16:58:46.999Z,2.50
2023-04-24T17:01:16.260Z,3.25
2023-04-24T17:03:44.091Z,4.45
2023-04-24T17:06:11.846Z,2.70
2023-04-24T17:08:41.003Z,7.10
2023-04-24T17:11:08.800Z,2.90
2023-04-24T17:13:36.622Z,4.55
2023-04-24T17:16:04.773Z,3.30
2023-04-24T17:18:34.815Z,3.60
2023-04-24T17:21:02.422Z,4.23
2023-04-24T17:23:29.946Z,3.27
2023-04-24T17:26:01.613Z,4.60
2023-04-24T17:28:31.868Z,3.60
2023-04-24T17:31:01.946Z,4.10
2023-04-24T17:33:32.156Z,3.10
2023-04-24T17:36:10.478Z,4.53
2023-04-24T17:38:38.773Z,5.70
2023-04-24T17:41:07.929Z,2.97
2023-04-24T17:43:40.510Z,5.20
2023-04-24T17:46:13.488Z,3.50
2023-04-24T17:48:43.291Z,2.73
2023-04-24T17:51:13.808Z,3.37
2023-04-24T17:53:42.801Z,3.70
2023-04-24T17:56:10.473Z,4.40
2023-04-24T17:58:39.771Z,3.23
2023-04-24T18:01:09.890Z,3.07
2023-04-24T18:03:38.600Z,8.33
2023-04-24T18:06:10.266Z,6.60
2023-04-24T18:08:38.578Z,8.20
2023-04-24T18:11:13.026Z,4.73
2023-04-24T18:13:46.769Z,5.97
2023-04-24T18:16:20.127Z,5.30
2023-04-24T18:18:49.522Z,5.57
2023-04-24T18:21:17.289Z,6.07
2023-04-24T18:24:07.798Z,4.83
2023-04-24T18:26:47.321Z,4.23
2023-04-24T18:29:20.133Z,3.67
2023-04-24T18:31:52.673Z,4.03
2023-04-24T18:34:20.627Z,5.77
2023-04-24T18:36:51.285Z,4.07
2023-04-24T18:39:19.744Z,7.43
2023-04-24T18:42:11.496Z,4.63
2023-04-24T18:44:44.558Z,5.43
2023-04-24T18:47:20.062Z,3.43
2023-04-24T18:49:55.645Z,2.70
2023-04-24T18:52:29.441Z,5.50
2023-04-24T18:54:59.760Z,4.30
2023-04-24T18:57:28.400Z,7.13
2023-04-24T18:59:57.496Z,5.17
2023-04-24T19:02:26.462Z,6.20
2023-04-24T19:04:54.154Z,3.33
2023-04-24T19:07:22.936Z,4.30
2023-04-24T19:09:50.856Z,3.40
2023-04-24T19:12:38.741Z,6.23
2023-04-24T19:15:11.989Z,3.87
2023-04-24T19:17:40.791Z,4.27
2023-04-24T19:20:09.238Z,4.70
2023-04-24T19:22:36.950Z,4.23
2023-04-24T19:25:06.953Z,5.67
2023-04-24T19:27:36.397Z,4.37
2023-04-24T19:30:04.661Z,3.53
2023-04-24T19:32:35.419Z,5.67
2023-04-24T19:35:03.166Z,6.27
2023-04-24T19:37:32.524Z,3.17
2023-04-24T19:40:00.490Z,3.53
2023-04-24T19:42:42.471Z,3.83
2023-04-24T19:45:15.370Z,5.53
2023-04-24T19:47:47.289Z,4.33
2023-04-24T19:50:24.028Z,6.33
2023-04-24T19:52:52.172Z,6.80
2023-04-24T19:55:25.200Z,3.60
2023-04-24T19:57:56.341Z,6.73
2023-04-24T20:00:24.093Z,5.40
2023-04-24T20:02:52.695Z,3.97
2023-04-24T20:05:24.105Z,4.20
2023-04-24T20:07:52.357Z,3.93
2023-04-24T20:10:30.618Z,3.87
2023-04-24T20:12:59.713Z,3.97
2023-04-24T20:15:27.252Z,4.40
2023-04-24T20:17:56.573Z,5.77
2023-04-24T20:20:24.117Z,5.50
2023-04-24T20:22:51.713Z,4.03
2023-04-24T20:25:19.462Z,6.43
2023-04-24T20:27:46.945Z,3.93
2023-04-24T20:30:16.033Z,4.23
2023-04-24T20:32:44.713Z,4.20
2023-04-24T20:35:12.701Z,4.87
2023-04-24T20:37:41.386Z,3.97
2023-04-24T20:40:10.507Z,5.13
2023-04-24T20:42:38.367Z,6.07
2023-04-24T20:45:06.972Z,3.87
2023-04-24T20:47:37.478Z,4.87
2023-04-24T20:50:06.382Z,4.43
2023-04-24T20:52:34.368Z,4.70
2023-04-24T20:55:02.019Z,5.00
2023-04-24T20:57:31.026Z,7.20
2023-04-24T21:00:00.433Z,7.13
2023-04-24T21:02:30.455Z,6.13
2023-04-24T21:04:58.109Z,6.97
2023-04-24T21:07:25.641Z,6.60
2023-04-24T21:09:53.196Z,4.83
2023-04-24T21:12:20.683Z,5.57
2023-04-24T21:14:49.806Z,5.13
2023-04-24T21:17:20.106Z,7.13
2023-04-24T21:19:49.079Z,6.83
2023-04-24T21:22:16.683Z,6.10
2023-04-24T21:24:44.341Z,4.37
2023-04-24T21:27:11.981Z,5.70
2023-04-24T21:29:39.525Z,4.07
2023-04-24T21:32:07.083Z,4.60
2023-04-24T21:34:34.654Z,4.93
2023-04-24T21:37:02.628Z,3.67
2023-04-24T21:39:30.624Z,3.33
2023-04-24T21:41:58.608Z,3.37
2023-04-24T21:44:26.636Z,2.50
2023-04-24T21:46:54.848Z,3.33
2023-04-24T21:49:22.646Z,3.33
2023-04-24T21:51:50.126Z,1.17
2023-04-24T21:54:20.242Z,1.00
2023-04-24T21:56:47.755Z,1.70
2023-04-24T21:59:15.671Z,1.90
2023-04-24T22:01:44.484Z,1.10
2023-04-24T22:04:12.229Z,1.20
2023-04-24T22:06:39.732Z,3.23
2023-04-24T22:09:07.688Z,1.80
2023-04-24T22:11:36.629Z,1.30
2023-04-24T22:14:04.524Z,1.40
2023-04-24T22:16:34.386Z,3.73
2023-04-24T22:19:02.220Z,3.90
2023-04-24T22:21:32.754Z,2.03
2023-04-24T22:24:00.317Z,1.03
2023-04-24T22:26:27.771Z,1.97
2023-04-24T22:28:55.416Z,0.73
2023-04-24T22:31:23.755Z,1.63
2023-04-24T22:33:51.749Z,0.90
2023-04-24T22:36:19.461Z,1.20
2023-04-24T22:38:46.950Z,1.87
2023-04-24T22:41:14.801Z,1.27
2023-04-24T22:43:42.395Z,1.23
2023-04-24T22:46:09.861Z,2.23
2023-04-24T22:48:37.356Z,1.40
2023-04-24T22:51:05.096Z,1.43
2023-04-24T22:53:32.524Z,1.83
2023-04-24T22:56:00.830Z,1.20
2023-04-24T22:58:28.312Z,2.63
2023-04-24T23:00:55.996Z,1.80
2023-04-24T23:03:24.097Z,1.30
2023-04-24T23:05:51.790Z,1.93
2023-04-24T23:08:19.268Z,1.57
2023-04-24T23:10:46.973Z,1.33
2023-04-24T23:13:14.475Z,2.17
2023-04-24T23:15:42.139Z,3.63
2023-04-24T23:18:09.662Z,2.67
2023-04-24T23:20:38.580Z,2.70
2023-04-24T23:23:06.193Z,1.63
2023-04-24T23:25:33.685Z,1.90
2023-04-24T23:28:01.112Z,1.33
2023-04-24T23:30:29.868Z,1.30
2023-04-24T23:32:57.382Z,1.40
2023-04-24T23:35:25.868Z,2.37
2023-04-24T23:37:53.312Z,3.57
2023-04-24T23:40:20.990Z,2.43
2023-04-24T23:42:59.705Z,2.70
2023-04-24T23:45:37.032Z,2.10
2023-04-24T23:48:05.540Z,3.60
2023-04-24T23:50:33.036Z,2.63
2023-04-24T23:53:00.978Z,2.27
2023-04-24T23:55:28.414Z,2.17
2023-04-24T23:57:55.812Z,1.50
